createdAt,value
2023-03-18T00:00:54.426Z,1.87
2023-03-18T00:04:06.536Z,1.85
2023-03-18T00:07:19.065Z,1.74
2023-03-18T00:10:31.886Z,1.67
2023-03-18T00:13:46.713Z,1.69
2023-03-18T00:16:58.778Z,1.66
2023-03-18T00:20:13.115Z,1.56
2023-03-18T00:23:26.265Z,1.58
2023-03-18T00:26:38.767Z,1.58
2023-03-18T00:29:51.797Z,1.59
2023-03-18T00:33:05.419Z,1.52
2023-03-18T00:36:21.446Z,1.48
2023-03-18T00:39:34.249Z,1.48
2023-03-18T00:42:48.106Z,1.51
2023-03-18T00:46:00.723Z,1.55
2023-03-18T00:49:14.269Z,1.42
2023-03-18T00:52:27.583Z,1.39
2023-03-18T00:55:39.787Z,1.34
2023-03-18T00:58:52.402Z,1.19
2023-03-18T01:02:04.629Z,1.11
2023-03-18T01:05:19.752Z,1.16
2023-03-18T01:08:32.657Z,1.12
2023-03-18T01:11:45.031Z,1.20
2023-03-18T01:14:58.146Z,1.20
2023-03-18T01:18:11.284Z,1.16
2023-03-18T01:21:24.307Z,1.19
2023-03-18T01:24:38.229Z,1.17
2023-03-18T01:27:50.784Z,1.20
2023-03-18T01:31:03.079Z,1.13
2023-03-18T01:34:16.632Z,1.05
2023-03-18T01:37:31.608Z,1.02
2023-03-18T01:40:48.391Z,1.04
2023-03-18T01:44:04.494Z,1.05
2023-03-18T01:47:17.470Z,1.05
2023-03-18T01:50:36.362Z,1.05
2023-03-18T01:53:54.325Z,1.02
2023-03-18T01:57:08.417Z,1.00
2023-03-18T02:00:23.557Z,0.87
2023-03-18T02:03:37.642Z,0.91
2023-03-18T02:06:50.410Z,0.91
2023-03-18T02:13:21.215Z,0.83
2023-03-18T02:16:38.651Z,0.85
2023-03-18T02:20:05.929Z,0.84
2023-03-18T02:23:24.113Z,0.83
2023-03-18T02:26:42.020Z,0.85
2023-03-18T02:29:58.339Z,0.83
2023-03-18T02:33:10.263Z,0.76
2023-03-18T02:36:28.052Z,0.73
2023-03-18T02:39:41.722Z,0.71
2023-03-18T02:42:55.271Z,0.74
2023-03-18T02:46:22.011Z,0.67
2023-03-18T02:49:35.054Z,0.65
2023-03-18T02:52:47.558Z,0.61
2023-03-18T02:56:00.101Z,0.63
2023-03-18T02:59:13.780Z,0.59
2023-03-18T03:02:26.012Z,0.53
2023-03-18T03:05:39.556Z,0.51
2023-03-18T03:08:51.784Z,0.55
2023-03-18T03:12:03.874Z,0.45
2023-03-18T03:15:18.139Z,0.45
2023-03-18T03:18:32.706Z,0.39
2023-03-18T03:21:45.001Z,0.35
2023-03-18T03:24:57.094Z,0.34
2023-03-18T03:28:10.446Z,0.31
2023-03-18T03:31:23.865Z,0.28
2023-03-18T03:34:36.208Z,0.27
2023-03-18T03:37:48.804Z,0.21
2023-03-18T03:41:02.409Z,0.22
2023-03-18T03:44:14.557Z,0.22
2023-03-18T03:47:26.565Z,0.24
2023-03-18T03:50:38.752Z,0.24
2023-03-18T03:53:50.867Z,0.33
2023-03-18T03:57:04.407Z,0.31
2023-03-18T04:00:22.245Z,0.32
2023-03-18T04:03:35.397Z,0.29
2023-03-18T04:06:49.319Z,0.32
2023-03-18T04:10:01.818Z,0.30
2023-03-18T04:13:15.664Z,0.22
2023-03-18T04:16:28.689Z,0.11
2023-03-18T04:19:41.621Z,0.10
2023-03-18T04:22:54.298Z,0.17
2023-03-18T04:26:07.072Z,0.06
2023-03-18T04:29:20.084Z,0.06
2023-03-18T04:32:32.402Z,0.08
2023-03-18T04:35:45.590Z,0.15
2023-03-18T04:39:00.045Z,-0.04
2023-03-18T04:42:13.606Z,-0.15
2023-03-18T04:45:26.131Z,-0.07
2023-03-18T04:48:40.937Z,-0.05
2023-03-18T04:51:53.716Z,0.01
2023-03-18T04:55:14.240Z,0.05
2023-03-18T04:58:26.528Z,0.03
2023-03-18T05:01:46.105Z,0.05
2023-03-18T05:05:01.455Z,-0.01
2023-03-18T05:08:15.733Z,0.02
2023-03-18T05:11:29.478Z,-0.03
2023-03-18T05:14:43.015Z,0.11
2023-03-18T05:17:55.377Z,0.15
2023-03-18T05:21:08.971Z,0.23
2023-03-18T05:24:22.056Z,0.26
2023-03-18T05:27:34.495Z,0.29
2023-03-18T05:30:48.626Z,0.39
2023-03-18T05:34:01.549Z,0.40
2023-03-18T05:37:18.876Z,0.50
2023-03-18T05:40:32.847Z,0.57
2023-03-18T05:43:47.648Z,0.63
2023-03-18T05:47:01.883Z,0.81
2023-03-18T05:50:39.647Z,0.81
2023-03-18T05:53:53.846Z,0.82
2023-03-18T05:57:09.385Z,1.09
2023-03-18T06:00:24.694Z,1.13
2023-03-18T06:03:37.673Z,1.34
2023-03-18T06:06:51.576Z,1.60
2023-03-18T06:10:03.934Z,2.10
2023-03-18T06:13:17.925Z,2.36
2023-03-18T06:16:31.133Z,2.85
2023-03-18T06:19:45.214Z,3.23
2023-03-18T06:22:55.671Z,3.58
2023-03-18T06:26:08.980Z,4.20
2023-03-18T06:29:23.068Z,4.75
2023-03-18T06:32:35.573Z,4.98
2023-03-18T06:35:48.456Z,5.15
2023-03-18T06:39:00.830Z,5.34
2023-03-18T06:42:13.861Z,6.04
2023-03-18T06:45:31.816Z,6.16
2023-03-18T06:48:46.928Z,6.19
2023-03-18T06:52:00.903Z,6.72
2023-03-18T06:55:16.723Z,6.59
2023-03-18T06:58:30.701Z,6.78
2023-03-18T07:01:47.783Z,7.39
2023-03-18T07:05:02.117Z,7.55
2023-03-18T07:08:15.773Z,7.62
2023-03-18T07:11:28.071Z,7.85
2023-03-18T07:14:44.221Z,8.03
2023-03-18T07:17:57.593Z,8.87
2023-03-18T07:21:10.166Z,8.94
2023-03-18T07:24:23.140Z,8.93
2023-03-18T07:27:35.364Z,9.09
2023-03-18T07:30:47.691Z,9.16
2023-03-18T07:33:59.814Z,8.99
2023-03-18T07:37:12.166Z,9.39
2023-03-18T07:40:24.815Z,9.66
2023-03-18T07:43:37.203Z,9.77
2023-03-18T07:46:49.433Z,9.44
2023-03-18T07:50:01.814Z,9.64
2023-03-18T07:53:16.585Z,9.70
2023-03-18T07:56:28.675Z,10.05
2023-03-18T07:59:41.714Z,10.01
2023-03-18T08:02:54.209Z,10.22
2023-03-18T08:06:06.332Z,10.35
2023-03-18T08:09:18.329Z,10.48
2023-03-18T08:12:41.609Z,10.41
2023-03-18T08:15:44.685Z,10.94
2023-03-18T08:18:56.697Z,11.13
2023-03-18T08:22:10.228Z,11.12
2023-03-18T08:25:23.691Z,11.24
2023-03-18T08:28:36.166Z,11.49
2023-03-18T08:31:48.137Z,11.90
2023-03-18T08:35:00.284Z,12.19
2023-03-18T08:38:12.274Z,12.96
2023-03-18T08:41:26.742Z,12.83
2023-03-18T08:44:40.316Z,13.53
2023-03-18T08:47:52.693Z,13.09
2023-03-18T08:51:04.908Z,13.97
2023-03-18T08:54:17.230Z,14.84
2023-03-18T08:57:30.466Z,15.78
2023-03-18T09:00:45.565Z,15.69
2023-03-18T09:03:59.250Z,16.29
2023-03-18T09:07:11.463Z,16.09
2023-03-18T09:10:24.231Z,16.42
2023-03-18T09:13:38.107Z,17.00
2023-03-18T09:16:50.681Z,17.44
2023-03-18T09:20:03.293Z,16.53
2023-03-18T09:23:18.306Z,16.99
2023-03-18T09:26:30.745Z,18.00
2023-03-18T09:29:43.229Z,16.86
2023-03-18T09:32:56.584Z,16.89
2023-03-18T09:36:09.927Z,16.81
2023-03-18T09:39:22.716Z,16.51
2023-03-18T09:42:52.460Z,16.41
2023-03-18T09:46:13.358Z,16.89
2023-03-18T09:49:59.329Z,16.96
2023-03-18T09:53:25.610Z,16.99
2023-03-18T09:56:41.720Z,17.13
2023-03-18T09:59:59.319Z,17.42
2023-03-18T10:03:17.233Z,17.00
2023-03-18T10:06:30.566Z,17.49
2023-03-18T10:09:48.439Z,17.19
2023-03-18T10:13:07.700Z,17.56
2023-03-18T10:16:26.422Z,17.51
2023-03-18T10:19:39.892Z,17.66
2023-03-18T10:23:17.389Z,17.68
2023-03-18T10:26:34.886Z,17.78
2023-03-18T10:29:53.300Z,18.11
2023-03-18T10:33:12.927Z,17.94
2023-03-18T10:36:30.826Z,17.55
2023-03-18T10:39:45.793Z,17.49
2023-03-18T10:43:00.054Z,17.56
2023-03-18T10:46:16.319Z,17.69
2023-03-18T10:49:31.937Z,17.51
2023-03-18T10:52:50.102Z,18.37
2023-03-18T10:56:08.956Z,18.09
2023-03-18T10:59:25.802Z,17.51
2023-03-18T11:02:45.705Z,17.40
2023-03-18T11:06:02.470Z,17.54
2023-03-18T11:09:20.342Z,17.32
2023-03-18T11:12:34.934Z,18.64
2023-03-18T11:15:53.041Z,18.35
2023-03-18T11:19:06.823Z,17.98
2023-03-18T11:22:27.553Z,17.93
2023-03-18T11:25:40.819Z,17.80
2023-03-18T11:28:53.046Z,18.02
2023-03-18T11:32:09.495Z,17.98
2023-03-18T11:35:27.730Z,17.26
2023-03-18T11:38:43.454Z,17.29
2023-03-18T11:41:54.034Z,17.25
2023-03-18T11:45:10.113Z,17.65
2023-03-18T11:48:31.818Z,17.85
2023-03-18T11:52:00.170Z,17.60
2023-03-18T11:55:27.106Z,17.55
2023-03-18T11:59:07.351Z,17.81
2023-03-18T12:02:40.430Z,17.44
2023-03-18T12:06:09.812Z,17.78
2023-03-18T12:09:27.915Z,17.67
2023-03-18T12:12:59.880Z,17.87
2023-03-18T12:16:21.216Z,18.44
2023-03-18T12:20:04.505Z,18.29
2023-03-18T12:23:46.113Z,17.81
2023-03-18T12:27:04.880Z,17.45
2023-03-18T12:30:56.096Z,17.62
2023-03-18T12:34:15.076Z,17.72
2023-03-18T12:37:38.845Z,17.77
2023-03-18T12:41:01.405Z,17.47
2023-03-18T12:44:29.263Z,17.65
2023-03-18T12:47:48.061Z,17.95
2023-03-18T12:51:05.454Z,17.79
2023-03-18T12:54:24.637Z,17.91
2023-03-18T12:57:45.266Z,17.73
2023-03-18T13:01:06.088Z,17.64
2023-03-18T13:04:23.678Z,17.54
2023-03-18T13:07:43.180Z,17.91
2023-03-18T13:11:02.147Z,17.90
2023-03-18T13:14:23.901Z,17.76
2023-03-18T13:17:40.039Z,17.48
2023-03-18T13:20:53.836Z,17.28
2023-03-18T13:24:29.328Z,17.44
2023-03-18T13:28:16.491Z,17.44
2023-03-18T13:31:38.657Z,17.13
2023-03-18T13:35:11.398Z,17.28
2023-03-18T13:38:36.899Z,17.10
2023-03-18T13:42:21.788Z,17.25
2023-03-18T13:45:37.693Z,17.17
2023-03-18T13:48:50.535Z,17.31
2023-03-18T13:52:06.069Z,17.28
2023-03-18T13:55:32.611Z,17.24
2023-03-18T13:58:52.724Z,17.02
2023-03-18T14:02:22.340Z,17.16
2023-03-18T14:05:47.005Z,17.19
2023-03-18T14:09:00.046Z,17.20
2023-03-18T14:12:28.808Z,17.13
2023-03-18T14:15:51.839Z,17.20
2023-03-18T14:19:08.027Z,17.42
2023-03-18T14:22:30.428Z,17.32
2023-03-18T14:26:05.899Z,17.41
2023-03-18T14:29:33.266Z,17.13
2023-03-18T14:32:46.994Z,16.72
2023-03-18T14:36:03.567Z,16.72
2023-03-18T14:39:22.091Z,16.74
2023-03-18T14:42:46.926Z,16.81
2023-03-18T14:46:03.071Z,16.68
2023-03-18T14:49:39.028Z,16.63
2023-03-18T14:52:58.334Z,16.39
2023-03-18T14:56:22.063Z,16.25
2023-03-18T14:59:34.404Z,16.08
2023-03-18T15:02:47.305Z,16.01
2023-03-18T15:06:03.717Z,15.94
2023-03-18T15:09:21.352Z,15.79
2023-03-18T15:12:37.356Z,15.69
2023-03-18T15:15:50.077Z,15.68
2023-03-18T15:19:03.725Z,15.65
2023-03-18T15:22:25.286Z,15.60
2023-03-18T15:25:38.064Z,15.48
2023-03-18T15:28:56.485Z,15.39
2023-03-18T15:32:23.352Z,15.23
2023-03-18T15:35:36.386Z,15.25
2023-03-18T15:38:53.978Z,15.21
2023-03-18T15:42:08.426Z,15.13
2023-03-18T15:45:25.632Z,15.16
2023-03-18T15:48:42.941Z,15.03
2023-03-18T15:51:55.402Z,14.91
2023-03-18T15:55:21.786Z,14.88
2023-03-18T15:58:40.765Z,14.80
2023-03-18T16:01:54.072Z,14.78
2023-03-18T16:05:17.797Z,14.83
2023-03-18T16:08:31.795Z,14.80
2023-03-18T16:11:44.022Z,14.74
2023-03-18T16:14:58.821Z,14.64
2023-03-18T16:18:12.848Z,14.52
2023-03-18T16:21:24.928Z,14.40
2023-03-18T16:24:36.991Z,14.34
2023-03-18T16:27:52.022Z,14.22
2023-03-18T16:31:04.232Z,14.08
2023-03-18T16:34:22.804Z,13.95
2023-03-18T16:37:35.634Z,13.80
2023-03-18T16:40:48.098Z,13.79
2023-03-18T16:44:01.229Z,13.73
2023-03-18T16:47:18.835Z,13.67
2023-03-18T16:50:34.514Z,13.54
2023-03-18T16:53:46.720Z,13.36
2023-03-18T16:57:02.364Z,13.24
2023-03-18T17:00:25.388Z,13.14
2023-03-18T17:03:38.180Z,13.02
2023-03-18T17:06:50.430Z,12.95
2023-03-18T17:10:02.287Z,12.78
2023-03-18T17:13:23.047Z,12.65
2023-03-18T17:16:36.533Z,12.57
2023-03-18T17:19:48.710Z,12.48
2023-03-18T17:23:04.080Z,12.37
2023-03-18T17:26:20.016Z,12.28
2023-03-18T17:29:33.690Z,12.23
2023-03-18T17:32:46.227Z,12.08
2023-03-18T17:36:00.404Z,11.86
2023-03-18T17:39:12.777Z,11.71
2023-03-18T17:42:36.353Z,11.72
2023-03-18T17:45:48.908Z,11.72
2023-03-18T17:49:01.161Z,11.66
2023-03-18T17:52:15.389Z,11.37
2023-03-18T17:55:29.425Z,11.12
2023-03-18T17:58:43.182Z,11.05
2023-03-18T18:01:56.867Z,11.04
2023-03-18T18:05:09.915Z,10.87
2023-03-18T18:08:25.737Z,10.74
2023-03-18T18:11:44.403Z,10.67
2023-03-18T18:14:56.846Z,10.79
2023-03-18T18:18:13.688Z,10.88
2023-03-18T18:21:29.848Z,10.57
2023-03-18T18:24:42.160Z,10.40
2023-03-18T18:27:54.716Z,10.49
2023-03-18T18:31:09.219Z,10.53
2023-03-18T18:34:21.857Z,10.26
2023-03-18T18:37:34.055Z,10.20
2023-03-18T18:40:48.745Z,10.24
2023-03-18T18:44:00.742Z,10.29
2023-03-18T18:47:24.521Z,9.97
2023-03-18T18:50:38.041Z,9.79
2023-03-18T18:53:50.672Z,9.84
2023-03-18T18:57:03.437Z,9.77
2023-03-18T19:00:24.698Z,9.63
2023-03-18T19:03:39.007Z,9.51
2023-03-18T19:06:52.639Z,9.39
2023-03-18T19:10:04.955Z,9.31
2023-03-18T19:13:21.019Z,9.36
2023-03-18T19:16:38.468Z,9.20
2023-03-18T19:19:51.565Z,9.33
2023-03-18T19:23:03.660Z,9.32
2023-03-18T19:26:21.277Z,9.19
2023-03-18T19:29:34.615Z,9.02
2023-03-18T19:32:47.103Z,8.84
2023-03-18T19:35:59.403Z,8.82
2023-03-18T19:39:15.357Z,8.81
2023-03-18T19:42:27.968Z,8.86
2023-03-18T19:45:41.174Z,8.98
2023-03-18T19:48:53.813Z,8.74
2023-03-18T19:52:06.944Z,8.54
2023-03-18T19:55:23.918Z,8.67
2023-03-18T19:58:36.884Z,8.83
2023-03-18T20:01:49.704Z,8.80
2023-03-18T20:05:04.270Z,8.62
2023-03-18T20:08:16.501Z,8.39
2023-03-18T20:11:28.887Z,8.52
2023-03-18T20:14:41.983Z,8.63
2023-03-18T20:17:55.563Z,8.38
2023-03-18T20:21:08.191Z,8.03
2023-03-18T20:24:25.739Z,7.89
2023-03-18T20:27:37.949Z,7.83
2023-03-18T20:30:52.382Z,7.69
2023-03-18T20:34:04.433Z,7.79
2023-03-18T20:37:26.123Z,7.89
2023-03-18T20:40:38.469Z,7.82
2023-03-18T20:43:51.232Z,7.98
2023-03-18T20:47:03.768Z,7.85
2023-03-18T20:50:20.030Z,7.78
2023-03-18T20:53:33.776Z,7.73
2023-03-18T20:56:45.813Z,7.60
2023-03-18T20:59:58.001Z,7.44
2023-03-18T21:03:10.654Z,7.21
2023-03-18T21:06:23.736Z,7.22
2023-03-18T21:09:35.940Z,7.27
2023-03-18T21:12:48.281Z,7.14
2023-03-18T21:16:02.025Z,7.08
2023-03-18T21:19:14.408Z,7.05
2023-03-18T21:22:33.578Z,6.93
2023-03-18T21:25:45.858Z,6.83
2023-03-18T21:28:59.046Z,6.85
2023-03-18T21:32:16.343Z,6.95
2023-03-18T21:35:31.767Z,7.06
2023-03-18T21:38:44.243Z,7.12
2023-03-18T21:41:56.258Z,7.14
2023-03-18T21:45:09.418Z,7.17
2023-03-18T21:48:21.817Z,7.15
2023-03-18T21:51:39.926Z,7.19
2023-03-18T21:54:51.595Z,7.16
2023-03-18T21:58:03.862Z,7.16
2023-03-18T22:01:22.949Z,7.11
2023-03-18T22:04:35.091Z,7.10
2023-03-18T22:07:47.873Z,6.85
2023-03-18T22:11:00.713Z,6.74
2023-03-18T22:14:13.888Z,6.64
2023-03-18T22:17:30.490Z,6.81
2023-03-18T22:20:44.030Z,6.66
2023-03-18T22:23:58.265Z,6.71
2023-03-18T22:27:10.706Z,6.73
2023-03-18T22:30:23.874Z,6.73
2023-03-18T22:33:39.018Z,6.49
2023-03-18T22:36:50.986Z,6.41
2023-03-18T22:40:03.183Z,6.32
2023-03-18T22:43:29.257Z,6.20
2023-03-18T22:46:41.407Z,6.01
2023-03-18T22:49:54.242Z,5.95
2023-03-18T22:53:10.092Z,5.85
2023-03-18T22:56:25.147Z,5.70
2023-03-18T22:59:37.324Z,5.64
2023-03-18T23:02:49.140Z,5.62
2023-03-18T23:06:03.119Z,5.68
2023-03-18T23:09:15.071Z,5.71
2023-03-18T23:12:28.109Z,5.75
2023-03-18T23:15:40.453Z,5.72
2023-03-18T23:18:53.176Z,5.70
2023-03-18T23:22:05.422Z,5.63
2023-03-18T23:25:21.929Z,5.52
2023-03-18T23:28:43.598Z,5.34
2023-03-18T23:31:48.248Z,5.34
2023-03-18T23:35:00.250Z,5.34
2023-03-18T23:38:12.504Z,5.32
2023-03-18T23:41:24.401Z,5.26
2023-03-18T23:44:36.402Z,5.13
2023-03-18T23:47:50.756Z,5.14
2023-03-18T23:51:02.721Z,5.02
2023-03-18T23:54:14.771Z,5.01
2023-03-18T23:57:27.073Z,5.02
